Hauptseite
METAR-TAF:

METAR-TAF

Flughäfen :

Flughafen Mailand-Malpensa

Mailand, Italien

Breite: 45-37N, Länge: 008-44E, Höhe: 234 m

Beobachtung

Neuester Wetterbericht von vor 25 Minuten, um 01:50 UTC
Wind 7 kt aus Nord
Temperatur 16°C
Luftfeuchtigkeit 88%
Luftdruck 1018 hPa
Sichtweite 10 km oder mehr
keine Wolken unter 1500 m und keine Kumulonimbus oder Gewitterwolken

METAR: LIMC 260150Z 01007KT CAVOK 16/14 Q1018 NOSIG

Zeit: 04:15 (02:15 UTC)

Prognose

Neuester Wetterbericht von vor 3 Stunden und 15 Minuten, um 23:00 UTC
Gültige Prognose vom 26 um 00 UTC bis 27 um 06 UTC
Wind 5 kt aus unterschiedlichen Richtungen
Sichtweite 10 km oder mehr
keine Wolken unter 1500 m und keine Kumulonimbus oder Gewitterwolken

TAF: LIMC 252300Z 2600/2706 VRB05KT CAVOK

Wetterbeobachtungen und Prognosen von mehr als 4000 Flughäfen (METAR und TAF Bericht).

Die verfügbaren Stationen werden durch gelbe und rote Markierungen auf der Karte dargestellt.

Führen Sie die Maus auf sie, um den Namen der Station zu sehen.

Darauf klicken, um die Beobachtung von Wetterbeobachtungen und Prognosen zu sehen.

Um die Karte zu ändern : klicken Sie auf den grünen Tasten mit einem schwarzen Kreuz Zum Vergrößern, auf den grünen Button mit einem Gedankenstrich zu verkleinern, oder auf die grünen Pfeile für benachbarte Karten.


METAR-TAF: